KFDK/FDK METAR and TAF weather

Enter ICAO airport designator
Station Type Date Time Source
KFDK METAR 2021/09/24 06:15 UTC NOAA

KFDK 240615Z AUTO 00000KT 4SM BR CLR 10/10 A3003 RMK AO2 LTG DSNT SE AND S


Station Type Date Time Source
KFDK Decoded METAR 2021/09/24 06:15 UTC NOAA

Frederick, Frederick Municipal Airport, MD, United States (KFDK) 39-25-03N 077-22-28W
Sep 24, 2021 - 02:15 AM EDT / 2021.09.24 0615 UTC
Wind: Calm:0
Visibility: 4 mile(s):0
Sky conditions: clear
Weather: mist; Lightning observed
Temperature: 50 F (10 C)
Dew Point: 50 F (10 C)
Relative Humidity: 100%
Pressure (altimeter): 30.03 in. Hg (1016 hPa)
ob: KFDK 240615Z AUTO 00000KT 4SM BR CLR 10/10 A3003 RMK AO2 LTG DSNT SE AND S
cycle: 6

Station Type Date Time Source
KFDK TAF UTC NOAA

Error!

Example: see airport list